Time;durP1;ratioP1;P1;durP2;ratioP2;P2;SDS_P1;SDS_P2;PMS_P1;PMS_P2;Temp;Humidity;BMP_temperature;BMP_pressure;BME280_temperature;BME280_humidity;BME280_pressure;Samples;Min_cycle;Max_cycle;Signal;HPM_P1;HPM_P2
2022/12/10 00:00:21;;;;;;;;;58.25;45.00;;;;;2.36;76.50;100584.78;5014691;28;63639;-82
2022/12/10 00:02:46;;;;;;;;;68.00;43.50;;;;;2.40;76.26;100573.63;5015863;28;63415;-82
2022/12/10 00:05:12;;;;;;;;;64.75;45.00;;;;;2.46;76.52;100571.06;4998449;28;55957;-82
2022/12/10 00:07:37;;;;;;;;;64.00;47.00;;;;;2.55;76.51;100577.94;5016329;28;45539;-82
2022/12/10 00:10:03;;;;;;;;;62.25;48.50;;;;;2.59;76.23;100574.53;4982133;28;46840;-82
2022/12/10 00:12:28;;;;;;;;;42.00;32.25;;;;;2.63;76.25;100577.94;5016121;28;45530;-83
2022/12/10 00:14:53;;;;;;;;;57.00;44.50;;;;;2.69;76.18;100588.22;4998325;28;59574;-82
2022/12/10 00:17:19;;;;;;;;;64.00;44.00;;;;;2.77;76.62;100578.81;5015575;28;63826;-82
2022/12/10 00:19:44;;;;;;;;;68.50;46.50;;;;;2.82;76.04;100591.66;4998106;28;58620;-82
2022/12/10 00:22:09;;;;;;;;;58.50;44.00;;;;;2.89;76.26;100593.38;4998121;28;55591;-82
2022/12/10 00:24:35;;;;;;;;;58.75;42.00;;;;;2.91;76.26;100583.97;5015956;28;45676;-82
2022/12/10 00:27:01;;;;;;;;;61.25;45.00;;;;;2.97;75.86;100599.41;5015514;28;45441;-82
2022/12/10 00:29:26;;;;;;;;;53.50;40.25;;;;;3.04;76.13;100600.25;4998311;28;45349;-82
2022/12/10 00:31:52;;;;;;;;;55.75;45.75;;;;;3.08;75.94;100595.13;5014736;28;51821;-82
2022/12/10 00:34:17;;;;;;;;;58.00;45.00;;;;;3.13;75.60;100592.53;5016081;28;45560;-82
2022/12/10 00:36:45;;;;;;;;;47.00;40.75;;;;;3.16;75.59;100601.94;4997509;28;62638;-82
2022/12/10 00:39:13;;;;;;;;;59.25;44.50;;;;;3.18;75.42;100600.25;4997981;28;45376;-82
2022/12/10 00:41:38;;;;;;;;;55.75;38.50;;;;;3.17;75.36;100601.94;5015879;28;45329;-82
2022/12/10 00:44:04;;;;;;;;;65.00;39.75;;;;;3.17;75.17;100601.94;5015799;28;46213;-82
2022/12/10 00:46:30;;;;;;;;;41.50;33.75;;;;;3.14;75.31;100601.97;5009346;28;45456;-83
2022/12/10 00:48:56;;;;;;;;;59.75;39.75;;;;;3.10;75.29;100603.69;5018106;28;45425;-83
2022/12/10 00:51:23;;;;;;;;;53.00;32.25;;;;;3.09;75.64;100601.97;5035761;28;45476;-82
2022/12/10 00:53:50;;;;;;;;;56.25;37.50;;;;;3.09;75.34;100607.09;5017212;28;46745;-82
2022/12/10 00:56:18;;;;;;;;;52.00;35.50;;;;;3.08;75.34;100607.97;5017855;28;45374;-82
2022/12/10 00:58:43;;;;;;;;;44.25;34.25;;;;;3.05;75.53;100605.41;5017984;28;45441;-82
2022/12/10 01:01:12;;;;;;;;;47.25;39.25;;;;;3.03;75.45;100599.41;5017123;28;63129;-82
2022/12/10 01:03:38;;;;;;;;;39.25;33.00;;;;;2.99;75.74;100600.25;5035593;28;47617;-82
2022/12/10 01:06:21;;;;;;;;;44.75;28.50;;;;;3.00;75.30;100590.81;5017721;28;45859;-82
2022/12/10 01:08:49;;;;;;;;;45.50;34.50;;;;;2.97;75.64;100594.25;5017570;28;45385;-82
2022/12/10 01:11:16;;;;;;;;;44.00;36.50;;;;;2.98;75.58;100600.25;5034103;28;45315;-82
2022/12/10 01:13:42;;;;;;;;;47.00;40.00;;;;;2.99;75.39;100600.25;5035315;28;46951;-82
2022/12/10 01:16:08;;;;;;;;;49.75;32.50;;;;;2.98;75.86;100595.97;5034286;28;45401;-82
2022/12/10 01:18:35;;;;;;;;;33.00;27.00;;;;;2.99;75.32;100600.25;5017667;28;45469;-82
2022/12/10 01:21:08;;;;;;;;;55.25;41.50;;;;;3.01;75.88;100606.25;5035749;28;45582;-82
2022/12/10 01:23:36;;;;;;;;;46.25;35.00;;;;;3.01;75.42;100613.97;5017171;28;45688;-82
2022/12/10 01:26:04;;;;;;;;;58.50;42.50;;;;;3.03;75.71;100613.97;5017627;28;45983;-82
2022/12/10 01:28:34;;;;;;;;;54.50;38.00;;;;;2.97;75.57;100612.25;5017660;28;45378;-82
2022/12/10 01:31:02;;;;;;;;;39.25;33.75;;;;;2.96;75.63;100622.53;5035214;28;45512;-82
2022/12/10 01:33:28;;;;;;;;;42.00;30.00;;;;;2.94;75.95;100614.81;5017530;28;46550;-82
2022/12/10 01:35:53;;;;;;;;;35.50;28.75;;;;;2.91;75.88;100622.53;5017296;28;45325;-82
2022/12/10 01:38:18;;;;;;;;;49.75;38.00;;;;;2.93;75.96;100627.69;5016771;28;59939;-82
2022/12/10 01:40:43;;;;;;;;;30.50;24.25;;;;;2.97;76.11;100637.97;5016497;28;63703;-82
2022/12/10 01:43:14;;;;;;;;;48.75;27.75;;;;;2.97;76.05;100637.09;5018866;28;64453;-82
2022/12/10 01:45:39;;;;;;;;;41.50;31.25;;;;;2.96;75.83;100648.25;5020897;28;45481;-81
2022/12/10 01:48:04;;;;;;;;;34.75;26.25;;;;;2.97;76.15;100649.97;5020573;28;49542;-81
2022/12/10 01:50:30;;;;;;;;;36.75;28.50;;;;;3.00;75.90;100652.53;5020438;28;59235;-82
2022/12/10 01:52:55;;;;;;;;;44.50;27.50;;;;;3.03;75.89;100653.41;5020333;28;46230;-82
2022/12/10 01:55:47;;;;;;;;;21.75;13.50;;;;;3.06;76.14;100657.69;5019983;28;61344;-82
2022/12/10 01:58:14;;;;;;;;;33.50;26.75;;;;;3.08;75.88;100662.00;5020777;28;45427;-82
2022/12/10 02:01:06;;;;;;;;;44.75;29.00;;;;;3.11;75.77;100658.53;5020832;28;45283;-82
2022/12/10 02:03:34;;;;;;;;;31.75;22.00;;;;;3.13;75.24;100661.13;5037756;28;46454;-82
2022/12/10 02:06:40;;;;;;;;;42.00;30.25;;;;;3.12;75.24;100665.41;5038401;28;45993;-82
2022/12/10 02:09:18;;;;;;;;;31.75;25.00;;;;;3.10;75.28;100667.09;4976758;28;45442;-82
2022/12/10 02:11:59;;;;;;;;;32.50;22.00;;;;;3.04;75.41;100667.97;4976677;28;45500;-82
2022/12/10 02:14:38;;;;;;;;;34.25;21.00;;;;;2.98;75.43;100672.25;4976517;28;46225;-82
2022/12/10 02:17:16;;;;;;;;;31.75;22.50;;;;;2.98;75.70;100672.25;4960389;28;45884;-82
2022/12/10 02:19:54;;;;;;;;;36.00;25.00;;;;;2.98;75.20;100675.69;4960122;28;45335;-82
2022/12/10 02:22:21;;;;;;;;;35.25;25.25;;;;;2.95;75.57;100675.66;4959888;28;45418;-82
2022/12/10 02:24:48;;;;;;;;;42.00;25.00;;;;;2.96;75.83;100681.69;4959921;28;47910;-82
2022/12/10 02:27:18;;;;;;;;;29.50;22.00;;;;;2.96;76.21;100682.53;4976383;28;45334;-82
2022/12/10 02:29:46;;;;;;;;;42.50;27.75;;;;;2.97;76.06;100673.97;4960232;28;45536;-81
2022/12/10 02:32:22;;;;;;;;;29.00;21.50;;;;;3.00;76.14;100675.69;4959909;28;45502;-82
2022/12/10 02:34:51;;;;;;;;;28.00;12.75;;;;;3.03;75.92;100683.41;4959872;28;45385;-82
2022/12/10 02:37:23;;;;;;;;;33.50;21.75;;;;;2.99;76.24;100677.41;4959600;28;45891;-82
2022/12/10 02:39:50;;;;;;;;;38.50;28.00;;;;;3.00;76.07;100668.81;4960023;28;45414;-82
2022/12/10 02:42:16;;;;;;;;;34.25;26.50;;;;;2.97;76.36;100678.25;4959793;28;45343;-82
2022/12/10 02:44:43;;;;;;;;;29.75;21.50;;;;;2.94;76.56;100675.69;4963396;28;67154;-82
2022/12/10 02:47:09;;;;;;;;;18.00;9.50;;;;;2.89;76.53;100679.09;5016521;28;45994;-82
2022/12/10 02:49:36;;;;;;;;;22.75;18.75;;;;;2.90;76.56;100678.25;5020024;28;45243;-82
2022/12/10 02:52:09;;;;;;;;;38.50;25.75;;;;;2.93;76.62;100679.94;5019405;28;45382;-82
2022/12/10 02:54:38;;;;;;;;;33.25;25.00;;;;;2.96;76.40;100685.09;5036525;28;46372;-82
2022/12/10 02:57:42;;;;;;;;;31.00;21.50;;;;;2.98;76.36;100678.25;5037753;28;45854;-82
2022/12/10 03:00:19;;;;;;;;;33.25;23.00;;;;;2.98;76.39;100675.69;4940327;28;45486;-82
2022/12/10 03:02:53;;;;;;;;;35.25;25.50;;;;;3.00;76.38;100680.81;4940287;28;45285;-82
2022/12/10 03:05:30;;;;;;;;;31.00;19.50;;;;;3.02;76.23;100681.69;4955898;28;46280;-82
2022/12/10 03:08:01;;;;;;;;;26.75;14.50;;;;;2.99;76.22;100676.53;4956350;28;45459;-82
2022/12/10 03:10:33;;;;;;;;;35.75;23.00;;;;;2.99;76.80;100679.97;4940102;28;45466;-82
2022/12/10 03:13:01;;;;;;;;;24.50;20.00;;;;;3.05;76.61;100681.69;4956149;28;45649;-82
2022/12/10 03:15:28;;;;;;;;;28.75;21.00;;;;;3.08;76.46;100681.69;4940070;28;46385;-82
2022/12/10 03:17:54;;;;;;;;;38.75;27.00;;;;;3.09;76.26;100684.25;4923899;28;46265;-83
2022/12/10 03:20:20;;;;;;;;;31.00;27.00;;;;;3.10;76.57;100686.00;4939054;28;64047;-82
2022/12/10 03:22:47;;;;;;;;;36.00;26.00;;;;;3.10;76.33;100691.13;4955542;28;57129;-82
2022/12/10 03:25:18;;;;;;;;;34.50;23.00;;;;;3.12;76.16;100691.13;4939810;28;47537;-82
2022/12/10 03:27:45;;;;;;;;;30.75;22.00;;;;;3.15;76.28;100696.25;4956196;28;45908;-82
2022/12/10 03:30:11;;;;;;;;;26.00;18.25;;;;;3.19;76.17;100699.69;4939874;28;45440;-82
2022/12/10 03:32:36;;;;;;;;;30.75;24.75;;;;;3.19;76.01;100700.53;4955852;28;45499;-83
2022/12/10 03:35:03;;;;;;;;;25.75;18.25;;;;;3.19;75.81;100692.84;4938911;28;63797;-82
2022/12/10 03:37:29;;;;;;;;;28.50;21.00;;;;;3.21;76.20;100698.88;5014198;28;45453;-82
2022/12/10 03:39:55;;;;;;;;;25.50;16.50;;;;;3.22;76.26;100702.28;5002660;28;45318;-82
2022/12/10 03:42:21;;;;;;;;;31.75;19.75;;;;;3.19;76.14;100700.53;5036961;28;45367;-83
2022/12/10 03:44:49;;;;;;;;;22.25;14.75;;;;;3.17;76.11;100694.56;5036433;28;58159;-82
2022/12/10 03:47:15;;;;;;;;;34.25;21.75;;;;;3.17;75.90;100693.69;5018848;28;45445;-82
2022/12/10 03:49:42;;;;;;;;;30.75;23.50;;;;;3.10;76.28;100688.56;5018603;28;45378;-82
2022/12/10 03:52:07;;;;;;;;;33.25;24.00;;;;;3.11;76.23;100691.97;5018919;28;45441;-82
2022/12/10 03:54:32;;;;;;;;;28.50;19.50;;;;;3.13;76.16;100705.69;5018370;28;46412;-82
2022/12/10 03:56:58;;;;;;;;;20.00;16.50;;;;;3.16;76.42;100708.28;5036667;28;45902;-82
2022/12/10 03:59:23;;;;;;;;;27.00;18.25;;;;;3.18;76.21;100711.72;5018318;28;56167;-82
2022/12/10 04:01:48;;;;;;;;;15.75;14.00;;;;;3.20;76.22;100715.13;5018048;28;60641;-82
2022/12/10 04:04:15;;;;;;;;;31.50;22.25;;;;;3.20;76.16;100714.28;5001989;28;46881;-82
2022/12/10 04:06:41;;;;;;;;;24.75;18.50;;;;;3.21;76.05;100711.72;5035725;28;60593;-82
2022/12/10 04:09:08;;;;;;;;;19.25;17.00;;;;;3.21;76.25;100718.56;5035327;28;45446;-82
2022/12/10 04:11:33;;;;;;;;;24.25;18.25;;;;;3.20;75.87;100714.28;5018639;28;45364;-82
2022/12/10 04:16:42;;;;;;;;;20.50;14.75;;;;;3.25;76.27;100709.97;5035998;28;45270;-83
2022/12/10 04:19:10;;;;;;;;;29.00;19.00;;;;;3.29;75.97;100711.72;5018266;28;48542;-83
2022/12/10 04:27:12;;;;;;;;;20.00;10.50;;;;;3.32;75.31;100713.44;5036349;28;45414;-82
2022/12/10 04:29:38;;;;;;;;;15.50;12.75;;;;;3.31;75.24;100712.59;5036505;28;45323;-82
2022/12/10 04:32:04;;;;;;;;;25.00;15.75;;;;;3.32;75.18;100708.28;5035830;28;45389;-82
2022/12/10 04:34:29;;;;;;;;;20.50;14.00;;;;;3.32;74.93;100704.00;5018183;28;46566;-82
2022/12/10 04:36:59;;;;;;;;;20.75;15.50;;;;;3.34;74.96;100704.00;5001924;28;45295;-82
2022/12/10 04:39:25;;;;;;;;;21.50;13.00;;;;;3.36;75.19;100710.00;5036275;28;45431;-82
2022/12/10 04:41:50;;;;;;;;;21.25;15.25;;;;;3.40;74.95;100712.59;5018256;28;45452;-82
2022/12/10 04:44:16;;;;;;;;;21.25;14.50;;;;;3.40;75.09;100716.84;5018059;28;46506;-82
2022/12/10 04:46:41;;;;;;;;;27.75;15.50;;;;;3.40;74.79;100722.88;5035483;28;45563;-82
2022/12/10 04:49:07;;;;;;;;;22.00;15.75;;;;;3.43;75.00;100727.16;5001109;28;58953;-82
2022/12/10 04:51:32;;;;;;;;;18.75;11.50;;;;;3.41;75.00;100729.72;5001588;28;45548;-82
2022/12/10 04:53:58;;;;;;;;;21.50;14.25;;;;;3.40;74.63;100733.16;5017004;28;65121;-82
2022/12/10 04:56:24;;;;;;;;;23.00;15.75;;;;;3.42;74.67;100728.03;5017282;28;60757;-83
2022/12/10 04:58:49;;;;;;;;;19.25;9.00;;;;;3.43;75.01;100729.72;5017852;28;45411;-82
2022/12/10 05:01:15;;;;;;;;;19.25;14.50;;;;;3.42;75.07;100734.03;5017728;28;45492;-82
2022/12/10 05:03:41;;;;;;;;;25.25;14.75;;;;;3.43;74.76;100733.16;5017790;28;45403;-82
2022/12/10 05:06:12;;;;;;;;;17.00;13.00;;;;;3.40;74.61;100728.03;5017831;28;45512;-82
2022/12/10 05:08:38;;;;;;;;;24.25;15.75;;;;;3.38;74.70;100727.16;5017776;28;45382;-82
2022/12/10 05:11:18;;;;;;;;;19.25;13.50;;;;;3.36;74.66;100734.03;5035725;28;45331;-82
2022/12/10 05:13:43;;;;;;;;;15.25;12.50;;;;;3.36;74.85;100731.47;5035631;28;46371;-83
2022/12/10 05:16:11;;;;;;;;;24.75;18.00;;;;;3.34;75.16;100735.72;5035135;28;45335;-82
2022/12/10 05:18:37;;;;;;;;;16.50;14.00;;;;;3.33;74.95;100733.16;5023710;28;45289;-83
2022/12/10 05:21:04;;;;;;;;;15.00;11.50;;;;;3.33;74.82;100730.59;5024332;28;45385;-82
2022/12/10 05:23:30;;;;;;;;;27.75;15.50;;;;;3.33;74.99;100730.59;5042020;28;45332;-83
2022/12/10 05:26:06;;;;;;;;;20.50;15.00;;;;;3.35;75.28;100734.03;5024317;28;45523;-82
2022/12/10 05:28:39;;;;;;;;;19.50;10.00;;;;;3.36;75.14;100752.03;5042161;28;45356;-82
2022/12/10 05:31:05;;;;;;;;;26.75;19.25;;;;;3.34;75.27;100737.44;5041722;28;45443;-83
2022/12/10 05:33:31;;;;;;;;;19.00;13.00;;;;;3.30;75.02;100750.28;5041871;28;46230;-82
2022/12/10 05:36:02;;;;;;;;;21.50;18.50;;;;;3.32;75.24;100747.72;5024146;28;45323;-82
2022/12/10 05:38:29;;;;;;;;;24.25;14.00;;;;;3.32;75.29;100752.03;5040779;28;45309;-82
2022/12/10 05:40:55;;;;;;;;;29.50;14.75;;;;;3.30;75.23;100752.88;5024021;28;45477;-82
2022/12/10 05:43:20;;;;;;;;;27.00;15.00;;;;;3.30;75.17;100754.59;5041817;28;46190;-82
2022/12/10 05:45:46;;;;;;;;;21.25;13.00;;;;;3.30;75.26;100755.44;5023540;28;45444;-83
2022/12/10 05:48:14;;;;;;;;;18.50;12.00;;;;;3.30;75.36;100757.16;5024064;28;45325;-82
2022/12/10 05:50:40;;;;;;;;;20.50;17.25;;;;;3.34;75.38;100760.59;5041595;28;45497;-82
2022/12/10 05:53:06;;;;;;;;;14.25;9.00;;;;;3.40;74.95;100769.19;5041770;28;45272;-83
2022/12/10 05:55:32;;;;;;;;;18.75;15.25;;;;;3.41;74.54;100764.91;5023664;28;45325;-82
2022/12/10 05:57:59;;;;;;;;;13.00;10.00;;;;;3.37;74.23;100756.31;5024125;28;45359;-82
2022/12/10 06:00:24;;;;;;;;;15.25;7.00;;;;;3.36;74.25;100758.88;5041526;28;45281;-83
2022/12/10 06:02:50;;;;;;;;;13.75;7.00;;;;;3.33;74.11;100761.47;5023814;28;45416;-82
2022/12/10 06:05:16;;;;;;;;;20.75;10.00;;;;;3.33;74.25;100757.19;5041551;28;46022;-82
2022/12/10 06:07:41;;;;;;;;;15.25;10.50;;;;;3.32;73.88;100759.75;5024012;28;45331;-82
2022/12/10 06:10:07;;;;;;;;;19.75;9.25;;;;;3.29;73.81;100758.88;5023581;28;50016;-83
2022/12/10 06:12:32;;;;;;;;;12.25;7.50;;;;;3.29;73.70;100768.31;5041268;28;45421;-83
2022/12/10 06:14:58;;;;;;;;;16.00;9.75;;;;;3.27;73.82;100764.91;5023433;28;45486;-83
2022/12/10 06:17:23;;;;;;;;;16.75;11.00;;;;;3.29;74.16;100773.47;5023406;28;52285;-82
2022/12/10 06:19:48;;;;;;;;;11.00;9.50;;;;;3.30;73.89;100782.88;5023081;28;60620;-82
2022/12/10 06:22:14;;;;;;;;;13.00;11.50;;;;;3.30;74.39;100781.16;5006258;28;67225;-83
2022/12/10 06:24:39;;;;;;;;;17.50;14.00;;;;;3.31;74.41;100779.47;5041425;28;45331;-83
2022/12/10 06:27:05;;;;;;;;;16.25;12.75;;;;;3.36;74.90;100789.75;5041009;28;58164;-82
2022/12/10 06:29:30;;;;;;;;;20.00;15.00;;;;;3.37;74.93;100794.06;5037610;28;45521;-82
2022/12/10 06:31:56;;;;;;;;;13.50;11.75;;;;;3.39;74.95;100788.06;5037629;28;45436;-83
2022/12/10 06:34:21;;;;;;;;;16.50;10.75;;;;;3.41;74.67;100793.19;5020251;28;45460;-82
2022/12/10 06:36:46;;;;;;;;;21.75;14.25;;;;;3.43;74.56;100788.91;5038100;28;45413;-82
2022/12/10 06:39:12;;;;;;;;;16.75;11.50;;;;;3.47;74.67;100795.78;5020220;28;45461;-82
2022/12/10 06:41:38;;;;;;;;;16.25;12.25;;;;;3.49;74.04;100801.78;5019710;28;45390;-82
2022/12/10 06:44:07;;;;;;;;;15.00;11.50;;;;;3.47;73.94;100801.81;5019869;28;45269;-83
2022/12/10 06:46:32;;;;;;;;;18.50;10.00;;;;;3.47;73.97;100798.34;5020124;28;45409;-83
2022/12/10 06:48:57;;;;;;;;;16.00;10.00;;;;;3.46;74.30;100800.06;5037221;28;57651;-83
2022/12/10 06:51:23;;;;;;;;;12.00;11.00;;;;;3.46;73.91;100799.22;5037063;28;60568;-82
2022/12/10 06:53:48;;;;;;;;;16.50;11.00;;;;;3.47;74.25;100800.94;5037506;28;45352;-83
2022/12/10 06:56:16;;;;;;;;;13.75;9.50;;;;;3.48;74.06;100798.34;5019567;28;45343;-82
2022/12/10 06:58:42;;;;;;;;;10.50;7.00;;;;;3.43;73.50;100797.50;5037710;28;45302;-83
2022/12/10 07:01:10;;;;;;;;;13.00;7.00;;;;;3.39;73.55;100807.78;5019601;28;47183;-83
2022/12/10 07:03:36;;;;;;;;;12.50;7.50;;;;;3.35;73.45;100816.38;5019730;28;45447;-83
2022/12/10 07:06:03;;;;;;;;;9.00;4.00;;;;;3.32;73.86;100818.91;5003362;28;45391;-82
2022/12/10 07:08:28;;;;;;;;;7.00;7.00;;;;;3.32;73.63;100830.06;5019685;28;45536;-82
2022/12/10 07:10:54;;;;;;;;;13.00;9.00;;;;;3.34;74.03;100823.19;5019185;28;45450;-82
2022/12/10 07:13:19;;;;;;;;;16.25;9.75;;;;;3.38;73.58;100827.53;5018727;28;67114;-82
2022/12/10 07:15:44;;;;;;;;;11.00;8.75;;;;;3.39;73.71;100829.22;5019741;28;45481;-82
2022/12/10 07:18:10;;;;;;;;;12.50;10.00;;;;;3.42;73.86;100833.53;5018936;28;62214;-83
2022/12/10 07:20:36;;;;;;;;;12.50;8.50;;;;;3.43;73.87;100836.09;5019415;28;46306;-82
2022/12/10 07:23:01;;;;;;;;;15.50;9.25;;;;;3.42;73.71;100833.53;5018956;28;57233;-82
2022/12/10 07:25:26;;;;;;;;;6.25;6.25;;;;;3.43;73.91;100838.66;5019280;28;45424;-83
2022/12/10 07:27:51;;;;;;;;;16.00;7.50;;;;;3.43;73.74;100835.25;5036717;28;58436;-82
2022/12/10 07:30:17;;;;;;;;;15.00;9.25;;;;;3.45;73.85;100838.66;5018728;28;60082;-82
2022/12/10 07:32:42;;;;;;;;;11.25;7.00;;;;;3.47;73.99;100844.69;5019245;28;45524;-82
2022/12/10 07:35:08;;;;;;;;;12.75;7.50;;;;;3.50;73.96;100847.25;5036556;28;62431;-83
2022/12/10 07:37:33;;;;;;;;;14.50;8.50;;;;;3.53;74.12;100846.41;5019394;28;45673;-82
2022/12/10 07:39:58;;;;;;;;;15.25;9.00;;;;;3.53;74.47;100848.97;5035732;28;58139;-82
2022/12/10 07:42:24;;;;;;;;;12.50;9.50;;;;;3.54;74.32;100848.97;5018161;28;66568;-82
2022/12/10 07:44:49;;;;;;;;;10.75;9.00;;;;;3.52;74.33;100850.69;5036275;28;59283;-82
2022/12/10 07:47:15;;;;;;;;;11.50;9.75;;;;;3.56;74.19;100854.13;5032046;28;45460;-83
2022/12/10 07:49:40;;;;;;;;;9.00;3.00;;;;;3.55;74.26;100857.56;4999177;28;45442;-81
2022/12/10 07:52:06;;;;;;;;;8.50;6.75;;;;;3.58;74.09;100857.56;5016216;28;63379;-81
2022/12/10 07:54:31;;;;;;;;;12.75;9.00;;;;;3.63;74.01;100861.88;5016496;28;45272;-81
2022/12/10 07:56:57;;;;;;;;;8.50;7.00;;;;;3.66;74.18;100866.19;5015769;28;45628;-79
2022/12/10 07:59:22;;;;;;;;;12.00;6.50;;;;;3.70;74.25;100865.31;5035639;28;69297;-81
2022/12/10 08:01:49;;;;;;;;;8.25;6.25;;;;;3.75;73.84;100870.47;5018138;28;57117;-80
2022/12/10 08:04:14;;;;;;;;;11.75;6.50;;;;;3.79;73.91;100875.63;5036739;28;45348;-80
2022/12/10 08:06:39;;;;;;;;;8.75;6.25;;;;;3.79;73.33;100873.06;5035741;28;61596;-80
2022/12/10 08:09:05;;;;;;;;;13.75;7.00;;;;;3.83;73.49;100879.06;5035293;28;65805;-80
2022/12/10 08:11:30;;;;;;;;;16.00;9.00;;;;;3.83;73.44;100874.78;5035879;28;52684;-80
2022/12/10 08:13:56;;;;;;;;;12.75;7.50;;;;;3.86;73.78;100879.06;5036499;28;45721;-80
2022/12/10 08:16:24;;;;;;;;;16.00;7.25;;;;;3.88;73.26;100878.22;5036568;28;45567;-80
2022/12/10 08:18:50;;;;;;;;;13.50;8.50;;;;;3.91;73.40;100885.06;5018729;28;45504;-80
2022/12/10 08:21:17;;;;;;;;;12.25;6.75;;;;;3.93;73.09;100885.94;5018299;28;45303;-79
2022/12/10 08:23:43;;;;;;;;;15.75;8.00;;;;;3.95;73.31;100888.50;5017862;28;45493;-79
2022/12/10 08:26:12;;;;;;;;;10.75;8.00;;;;;3.99;73.37;100897.97;4998679;28;45346;-80
2022/12/10 08:28:38;;;;;;;;;6.50;4.75;;;;;3.99;73.11;100898.84;5018368;28;45366;-80
2022/12/10 08:31:09;;;;;;;;;15.50;11.00;;;;;4.02;73.02;100901.41;5001354;28;45412;-79
2022/12/10 08:33:35;;;;;;;;;16.75;9.00;;;;;4.04;72.95;100903.97;5018152;28;45420;-79
2022/12/10 08:36:05;;;;;;;;;9.50;6.00;;;;;4.04;73.01;100912.56;5018466;28;45561;-79
2022/12/10 08:38:30;;;;;;;;;9.50;8.25;;;;;4.00;72.68;100920.28;5034622;28;46965;-78
2022/12/10 08:40:56;;;;;;;;;13.00;6.00;;;;;4.00;72.67;100921.16;5013141;28;62202;-79
2022/12/10 08:43:22;;;;;;;;;12.75;6.00;;;;;3.99;72.49;100915.97;5017930;28;45433;-79
2022/12/10 08:45:47;;;;;;;;;9.50;6.00;;;;;3.99;72.34;100914.28;5034874;28;59124;-79
2022/12/10 08:48:13;;;;;;;;;16.25;11.00;;;;;3.98;72.30;100922.88;5035129;28;70501;-78
2022/12/10 08:50:38;;;;;;;;;13.00;8.50;;;;;4.00;72.77;100928.88;5017489;28;45568;-79
2022/12/10 08:53:04;;;;;;;;;12.00;9.25;;;;;4.01;72.71;100930.59;5016590;28;45420;-79
2022/12/10 08:55:29;;;;;;;;;17.50;10.50;;;;;4.03;72.20;100925.44;5016865;28;45419;-80
2022/12/10 08:57:56;;;;;;;;;11.00;7.00;;;;;4.02;72.41;100918.56;5017490;28;48892;-79
2022/12/10 09:00:22;;;;;;;;;17.25;11.25;;;;;4.04;72.32;100920.28;5017961;28;45483;-81
2022/12/10 09:02:47;;;;;;;;;16.50;10.00;;;;;4.07;72.50;100930.59;5017692;28;45306;-81
2022/12/10 09:05:13;;;;;;;;;16.00;11.50;;;;;4.06;72.48;100934.03;5017886;28;45346;-82
2022/12/10 09:07:38;;;;;;;;;16.25;11.50;;;;;4.07;72.18;100930.59;5035336;28;45334;-83
2022/12/10 09:10:04;;;;;;;;;12.75;11.75;;;;;4.11;72.46;100935.78;5017338;28;46483;-80
2022/12/10 09:12:30;;;;;;;;;15.75;10.00;;;;;4.17;72.40;100943.50;5035648;28;45431;-80
2022/12/10 09:14:56;;;;;;;;;14.25;10.75;;;;;4.18;72.32;100940.91;5035437;28;45355;-80
2022/12/10 09:17:21;;;;;;;;;19.00;15.25;;;;;4.16;72.48;100945.22;5035351;28;46863;-80
2022/12/10 09:19:46;;;;;;;;;23.25;15.00;;;;;4.19;72.43;100944.34;5035548;28;45290;-80
2022/12/10 09:22:12;;;;;;;;;16.50;8.75;;;;;4.21;71.84;100945.22;5017389;28;45438;-81
2022/12/10 09:24:37;;;;;;;;;23.25;12.00;;;;;4.28;72.50;100953.81;5016967;28;45316;-81
2022/12/10 09:27:03;;;;;;;;;12.50;11.25;;;;;4.35;72.49;100947.81;5016948;28;68014;-82
2022/12/10 09:29:28;;;;;;;;;22.50;13.00;;;;;4.41;72.08;100947.78;5035437;28;45536;-81
2022/12/10 09:31:54;;;;;;;;;19.75;13.00;;;;;4.49;71.85;100950.38;5035405;28;45391;-82
2022/12/10 09:34:20;;;;;;;;;19.00;13.25;;;;;4.51;71.77;100940.91;5035512;28;45285;-82
2022/12/10 09:36:46;;;;;;;;;16.00;14.00;;;;;4.55;71.53;100942.63;5017052;28;46563;-82
2022/12/10 09:39:11;;;;;;;;;20.50;13.75;;;;;4.60;71.60;100946.06;5017592;28;45325;-81
2022/12/10 09:41:52;;;;;;;;;17.25;9.50;;;;;4.65;71.60;100946.91;5000756;28;45296;-81
2022/12/10 09:44:35;;;;;;;;;16.75;11.50;;;;;4.68;71.42;100948.63;5035312;28;45457;-82
2022/12/10 09:47:03;;;;;;;;;19.00;13.00;;;;;4.67;71.25;100955.50;5035045;28;46613;-82
2022/12/10 09:49:38;;;;;;;;;15.00;13.00;;;;;4.65;71.24;100947.75;5017309;28;45505;-81
2022/12/10 09:52:06;;;;;;;;;17.25;11.25;;;;;4.64;70.96;100952.91;5034838;28;45538;-82
2022/12/10 09:54:41;;;;;;;;;18.75;15.25;;;;;4.60;70.79;100957.22;5017148;28;45500;-82
2022/12/10 09:57:14;;;;;;;;;15.25;11.50;;;;;4.51;70.23;100958.94;5017169;28;46940;-81
2022/12/10 09:59:43;;;;;;;;;25.00;13.00;;;;;4.45;70.30;100965.81;5017212;28;45359;-82
2022/12/10 10:02:21;;;;;;;;;13.25;8.50;;;;;4.44;70.89;100961.53;5017237;28;45614;-82
2022/12/10 10:04:47;;;;;;;;;17.50;14.50;;;;;4.49;70.93;100958.94;5037813;28;45544;-82
2022/12/10 10:07:24;;;;;;;;;18.50;11.00;;;;;4.58;70.85;100955.50;5020701;28;45319;-82
2022/12/10 10:09:51;;;;;;;;;24.50;14.50;;;;;4.62;70.73;100960.69;5020496;28;45888;-82
2022/12/10 10:12:17;;;;;;;;;24.00;15.00;;;;;4.66;70.43;100951.19;5020771;28;45374;-82
2022/12/10 10:14:44;;;;;;;;;16.75;13.00;;;;;4.69;70.46;100960.66;5020247;28;54931;-81
2022/12/10 10:17:16;;;;;;;;;24.75;11.50;;;;;4.73;70.35;100964.97;5037005;28;47200;-82
2022/12/10 10:19:44;;;;;;;;;15.25;11.25;;;;;4.77;70.15;100958.94;5020324;28;45393;-81
2022/12/10 10:22:10;;;;;;;;;14.50;12.50;;;;;4.83;70.37;100964.94;5038312;28;45305;-81
2022/12/10 10:24:40;;;;;;;;;14.50;10.00;;;;;4.84;70.15;100953.75;5020433;28;45415;-81
2022/12/10 10:27:23;;;;;;;;;13.75;10.75;;;;;4.84;69.38;100955.47;5038204;28;45530;-81
2022/12/10 10:29:52;;;;;;;;;16.50;12.50;;;;;4.84;69.78;100958.06;5020246;28;45907;-81
2022/12/10 10:32:19;;;;;;;;;16.00;11.00;;;;;4.90;69.83;100957.19;5003922;28;45483;-81
2022/12/10 10:34:46;;;;;;;;;13.25;7.50;;;;;4.96;69.82;100957.16;5019863;28;45577;-81
2022/12/10 10:37:39;;;;;;;;;22.75;16.00;;;;;4.95;69.44;100968.38;5020062;28;46579;-81
2022/12/10 10:40:05;;;;;;;;;28.25;13.00;;;;;4.96;69.58;100957.16;5020088;28;45315;-81
2022/12/10 10:42:39;;;;;;;;;24.00;16.75;;;;;5.00;69.52;100972.66;5038027;28;45273;-81
2022/12/10 10:45:26;;;;;;;;;19.00;14.00;;;;;5.01;69.41;100973.50;5020278;28;45485;-81
2022/12/10 10:48:08;;;;;;;;;20.00;11.25;;;;;5.08;69.61;100967.47;5037754;28;46430;-81
2022/12/10 10:50:46;;;;;;;;;105.25;72.25;;;;;5.06;69.30;100970.91;5019802;28;45664;-81
2022/12/10 10:53:37;;;;;;;;;108.25;78.50;;;;;5.02;69.55;100968.34;5019894;28;45484;-81
2022/12/10 10:56:25;;;;;;;;;19.50;14.00;;;;;5.07;69.05;100964.88;5037895;28;45318;-81
2022/12/10 10:59:01;;;;;;;;;22.00;10.25;;;;;5.16;69.31;100960.56;5019724;28;46221;-81
2022/12/10 11:01:50;;;;;;;;;17.50;16.00;;;;;5.36;68.57;100967.38;5019740;28;45643;-81
2022/12/10 11:04:18;;;;;;;;;20.00;10.75;;;;;5.59;68.90;100973.31;5037309;28;45409;-81
2022/12/10 11:06:44;;;;;;;;;15.25;10.50;;;;;5.79;67.87;100962.88;5019824;28;45630;-79
2022/12/10 11:09:20;;;;;;;;;18.75;14.00;;;;;5.98;67.50;100966.25;5018752;28;68548;-81
2022/12/10 11:12:00;;;;;;;;;26.25;19.50;;;;;6.05;67.20;100963.63;5019669;28;45457;-82
2022/12/10 11:14:31;;;;;;;;;16.75;13.50;;;;;5.96;66.77;100960.22;5019214;28;45453;-79
2022/12/10 11:17:02;;;;;;;;;20.00;13.00;;;;;5.90;66.64;100962.81;5019557;28;45448;-80
2022/12/10 11:19:27;;;;;;;;;16.25;11.25;;;;;5.93;66.85;100967.13;5036967;28;47004;-80
2022/12/10 11:21:52;;;;;;;;;16.50;15.00;;;;;6.17;66.96;100959.22;5018659;28;64428;-81
2022/12/10 11:24:19;;;;;;;;;16.50;14.75;;;;;7.27;67.34;100953.88;5018828;28;64936;-80
2022/12/10 11:27:04;;;;;;;;;18.25;11.25;;;;;8.12;65.29;100945.81;5019428;28;45288;-80
2022/12/10 11:30:00;;;;;;;;;26.00;18.75;;;;;8.25;63.42;100951.66;5019319;28;45585;-80
2022/12/10 11:32:36;;;;;;;;;16.25;13.25;;;;;8.11;62.13;100945.81;5002337;28;45412;-80